Search for airport 
image banner adimage banner adimage banner ad
image banner ad

KSMX - Santa Maria Pub/Capt G Allan Hancock Fld

Located in Santa Maria, United States

ICAO - SMX, IATA - SMX

Data provided by Airmate  

General information

Coordinates: N34°53'60" W120°27'29"
Elevation is 261 feet MSL.
Magnetic variation is 14° East
View others Airports in California

Operational data

Special qualification required
Current time UTC:
Current local time:
Weather
METAR: KSMX 292051Z 30009KT 9SM CLR 22/14 A2996 RMK AO2 SLP145 T02170139 56009
TAF: KSMX 291736Z 2918/3018 00000KT P6SM OVC005 FM291815 VRB03KT P6SM SCT005 FM292000 31012KT P6SM SKC FM300300 32006KT P6SM BKN007 FM300700 VRB03KT 5SM BR OVC005 FM301000 00000KT 1SM BR OVC005
View NOTAMs / SUP AIP / TFR affecting this airport [VIEW]
Communications frequencies: [VIEW]

Runways:

RWY identifierQFULength (ft)Width (ft)SurfaceLDA (ft)
0236°519975ASPH5199
20216°519975ASPH5199
12135°8004150ASPH8004
30315°8004150ASPH8004

Airport contact information

Address: Santa Maria United States

Satellite view of KSMX